createdAt,value
2024-03-11T00:01:45.884Z,7.67
2024-03-11T00:05:48.813Z,7.57
2024-03-11T00:09:51.690Z,7.48
2024-03-11T00:13:55.900Z,7.42
2024-03-11T00:17:58.858Z,7.34
2024-03-11T00:22:01.893Z,7.28
2024-03-11T00:26:05.541Z,7.23
2024-03-11T00:30:12.563Z,7.23
2024-03-11T00:34:16.068Z,7.19
2024-03-11T00:38:19.012Z,7.16
2024-03-11T00:42:21.914Z,7.16
2024-03-11T00:46:26.170Z,7.16
2024-03-11T00:50:29.157Z,7.16
2024-03-11T00:54:31.909Z,7.15
2024-03-11T00:58:35.802Z,7.17
2024-03-11T01:02:40.008Z,7.18
2024-03-11T01:06:50.023Z,7.16
2024-03-11T01:10:59.485Z,7.15
2024-03-11T01:15:02.788Z,7.14
2024-03-11T01:19:08.276Z,7.11
2024-03-11T01:23:11.193Z,7.07
2024-03-11T01:27:15.732Z,7.01
2024-03-11T01:31:18.484Z,6.92
2024-03-11T01:35:22.817Z,6.88
2024-03-11T01:39:27.415Z,6.84
2024-03-11T01:43:31.245Z,6.78
2024-03-11T01:47:34.673Z,6.74
2024-03-11T01:51:40.293Z,6.71
2024-03-11T01:55:44.643Z,6.71
2024-03-11T01:59:48.338Z,6.66
2024-03-11T02:03:52.009Z,6.60
2024-03-11T02:08:00.907Z,6.58
2024-03-11T02:12:06.215Z,6.47
2024-03-11T02:16:09.023Z,6.38
2024-03-11T02:20:17.241Z,6.27
2024-03-11T02:24:21.510Z,6.18
2024-03-11T02:28:24.792Z,6.07
2024-03-11T02:32:28.690Z,5.97
2024-03-11T02:36:31.735Z,5.80
2024-03-11T02:40:39.638Z,5.65
2024-03-11T02:44:42.637Z,5.55
2024-03-11T02:48:45.513Z,5.50
2024-03-11T02:52:48.300Z,5.46
2024-03-11T02:56:52.529Z,5.41
2024-03-11T03:00:55.416Z,5.35
2024-03-11T03:04:58.270Z,5.33
2024-03-11T03:09:01.616Z,5.32
2024-03-11T03:13:06.256Z,5.26
2024-03-11T03:17:09.224Z,5.15
2024-03-11T03:21:12.474Z,4.96
2024-03-11T03:25:15.239Z,4.87
2024-03-11T03:29:20.129Z,4.84
2024-03-11T03:33:23.323Z,4.80
2024-03-11T03:37:26.168Z,4.72
2024-03-11T03:41:28.905Z,4.65
2024-03-11T03:45:33.123Z,4.64
2024-03-11T03:49:35.975Z,4.63
2024-03-11T03:53:38.890Z,4.64
2024-03-11T03:57:44.083Z,4.66
2024-03-11T04:01:48.263Z,4.68
2024-03-11T04:05:51.213Z,4.68
2024-03-11T04:09:54.128Z,4.66
2024-03-11T04:13:56.790Z,4.63
2024-03-11T04:18:06.880Z,4.56
2024-03-11T04:22:12.141Z,4.48
2024-03-11T04:26:15.179Z,4.44
2024-03-11T04:30:20.480Z,4.39
2024-03-11T04:34:24.660Z,4.36
2024-03-11T04:38:27.816Z,4.21
2024-03-11T04:42:30.920Z,4.13
2024-03-11T04:46:33.757Z,4.14
2024-03-11T04:50:41.967Z,4.16
2024-03-11T04:54:46.744Z,4.43
2024-03-11T04:58:49.607Z,4.98
2024-03-11T05:02:52.355Z,5.25
2024-03-11T05:06:56.388Z,5.07
2024-03-11T05:10:59.972Z,4.68
2024-03-11T05:15:02.814Z,4.42
2024-03-11T05:19:05.534Z,4.23
2024-03-11T05:23:09.628Z,4.12
2024-03-11T05:27:12.591Z,4.01
2024-03-11T05:31:15.279Z,3.87
2024-03-11T05:35:21.989Z,3.72
2024-03-11T05:39:28.424Z,3.66
2024-03-11T05:43:31.277Z,3.65
2024-03-11T05:47:34.078Z,3.63
2024-03-11T05:51:38.810Z,3.53
2024-03-11T05:55:42.988Z,3.43
2024-03-11T05:59:45.732Z,3.23
2024-03-11T06:03:50.566Z,3.14
2024-03-11T06:07:53.618Z,3.08
2024-03-11T06:11:59.707Z,3.08
2024-03-11T06:16:03.323Z,3.05
2024-03-11T06:20:10.733Z,2.99
2024-03-11T06:24:14.143Z,2.91
2024-03-11T06:28:21.050Z,2.87
2024-03-11T06:32:24.973Z,2.87
2024-03-11T06:36:27.870Z,2.87
2024-03-11T06:40:33.007Z,2.94
2024-03-11T06:44:41.195Z,3.00
2024-03-11T06:48:45.483Z,3.01
2024-03-11T06:52:48.435Z,3.01
2024-03-11T06:56:51.280Z,3.06
2024-03-11T07:00:55.589Z,3.10
2024-03-11T07:04:58.346Z,3.20
2024-03-11T07:09:02.086Z,3.29
2024-03-11T07:13:07.512Z,3.36
2024-03-11T07:17:13.515Z,3.46
2024-03-11T07:21:16.251Z,3.58
2024-03-11T07:25:19.246Z,3.73
2024-03-11T07:29:23.784Z,3.85
2024-03-11T07:33:28.234Z,3.99
2024-03-11T07:37:37.552Z,4.14
2024-03-11T07:41:40.594Z,4.36
2024-03-11T07:45:43.576Z,4.63
2024-03-11T07:49:48.094Z,4.86
2024-03-11T07:53:52.027Z,5.06
2024-03-11T07:57:55.601Z,5.27
2024-03-11T08:01:58.994Z,5.45
2024-03-11T08:06:03.089Z,5.59
2024-03-11T08:10:07.769Z,5.76
2024-03-11T08:14:11.893Z,5.87
2024-03-11T08:18:15.522Z,6.02
2024-03-11T08:22:19.599Z,6.17
2024-03-11T08:26:22.359Z,6.40
2024-03-11T08:30:28.178Z,6.51
2024-03-11T08:34:30.915Z,6.65
2024-03-11T08:38:37.161Z,6.84
2024-03-11T08:42:40.504Z,7.07
2024-03-11T08:46:44.826Z,7.21
2024-03-11T08:50:49.456Z,7.38
2024-03-11T08:54:55.002Z,7.46
2024-03-11T08:58:57.941Z,7.65
2024-03-11T09:03:00.758Z,7.71
2024-03-11T09:07:03.847Z,7.85
2024-03-11T09:11:07.882Z,7.97
2024-03-11T09:15:17.620Z,7.82
2024-03-11T09:19:22.290Z,7.89
2024-03-11T09:23:25.156Z,8.15
2024-03-11T09:27:29.375Z,8.48
2024-03-11T09:31:32.297Z,8.74
2024-03-11T09:35:36.159Z,8.99
2024-03-11T09:39:39.935Z,9.19
2024-03-11T09:43:49.686Z,9.36
2024-03-11T09:47:58.308Z,9.55
2024-03-11T09:52:03.419Z,9.67
2024-03-11T09:56:09.912Z,9.80
2024-03-11T10:00:16.158Z,10.08
2024-03-11T10:04:22.194Z,10.35
2024-03-11T10:08:26.490Z,10.58
2024-03-11T10:12:33.077Z,10.86
2024-03-11T10:16:37.234Z,11.17
2024-03-11T10:20:39.939Z,11.07
2024-03-11T10:24:45.986Z,11.04
2024-03-11T10:28:50.866Z,11.02
2024-03-11T10:32:57.139Z,11.40
2024-03-11T10:37:03.002Z,11.71
2024-03-11T10:41:18.677Z,11.90
2024-03-11T10:45:32.134Z,12.02
2024-03-11T10:49:40.786Z,12.16
2024-03-11T10:53:44.149Z,11.91
2024-03-11T10:57:51.510Z,12.02
2024-03-11T11:01:58.359Z,12.17
2024-03-11T11:06:10.740Z,12.20
2024-03-11T11:10:19.010Z,12.32
2024-03-11T11:14:29.888Z,12.19
2024-03-11T11:18:38.588Z,11.94
2024-03-11T11:22:43.456Z,12.24
2024-03-11T11:26:46.174Z,12.52
2024-03-11T11:30:49.561Z,12.69
2024-03-11T11:34:56.546Z,12.82
2024-03-11T11:39:36.903Z,12.93
2024-03-11T11:43:46.791Z,13.04
2024-03-11T11:47:49.854Z,13.18
2024-03-11T11:51:53.811Z,12.81
2024-03-11T11:55:58.901Z,13.08
2024-03-11T12:00:05.174Z,13.10
2024-03-11T12:04:09.448Z,12.94
2024-03-11T12:08:20.188Z,13.08
2024-03-11T12:12:29.576Z,12.81
2024-03-11T12:16:32.325Z,12.97
2024-03-11T12:20:37.006Z,13.11
2024-03-11T12:24:39.924Z,13.22
2024-03-11T12:29:08.933Z,12.81
2024-03-11T12:33:15.906Z,13.00
2024-03-11T12:37:19.178Z,13.43
2024-03-11T12:41:42.103Z,13.89
2024-03-11T12:45:47.482Z,14.21
2024-03-11T12:49:50.773Z,13.53
2024-03-11T12:53:53.498Z,13.87
2024-03-11T12:58:05.338Z,13.91
2024-03-11T13:02:15.259Z,14.03
2024-03-11T13:06:20.658Z,14.05
2024-03-11T13:10:26.016Z,14.44
2024-03-11T13:14:29.000Z,14.69
2024-03-11T13:18:33.107Z,14.97
2024-03-11T13:22:37.519Z,15.05
2024-03-11T13:26:41.693Z,15.00
2024-03-11T13:30:49.946Z,14.98
2024-03-11T13:34:54.810Z,14.92
2024-03-11T13:38:57.504Z,14.52
2024-03-11T13:43:00.231Z,14.68
2024-03-11T13:47:03.704Z,14.48
2024-03-11T13:51:08.151Z,14.31
2024-03-11T13:55:13.157Z,14.15
2024-03-11T13:59:17.834Z,14.44
2024-03-11T14:03:21.184Z,14.65
2024-03-11T14:07:25.864Z,14.39
2024-03-11T14:11:28.589Z,14.35
2024-03-11T14:15:31.704Z,14.49
2024-03-11T14:19:34.423Z,14.56
2024-03-11T14:23:39.991Z,14.35
2024-03-11T14:27:43.645Z,14.30
2024-03-11T14:31:46.957Z,14.33
2024-03-11T14:35:49.746Z,13.97
2024-03-11T14:39:55.693Z,14.03
2024-03-11T14:43:58.671Z,14.16
2024-03-11T14:48:02.671Z,14.17
2024-03-11T14:52:06.424Z,13.77
2024-03-11T14:56:11.423Z,13.80
2024-03-11T15:00:21.786Z,13.91
2024-03-11T15:04:27.007Z,14.02
2024-03-11T15:08:30.320Z,13.99
2024-03-11T15:12:35.755Z,13.92
2024-03-11T15:16:38.498Z,13.86
2024-03-11T15:20:42.458Z,13.52
2024-03-11T15:24:45.906Z,13.59
2024-03-11T15:28:51.863Z,13.59
2024-03-11T15:32:55.183Z,13.67
2024-03-11T15:36:58.687Z,13.77
2024-03-11T15:41:01.432Z,13.70
2024-03-11T15:45:06.377Z,13.65
2024-03-11T15:49:09.476Z,13.52
2024-03-11T15:53:14.049Z,13.45
2024-03-11T15:57:17.759Z,13.42
2024-03-11T16:01:25.933Z,13.37
2024-03-11T16:05:31.433Z,13.31
2024-03-11T16:09:50.621Z,13.28
2024-03-11T16:13:57.629Z,13.27
2024-03-11T16:18:03.233Z,13.22
2024-03-11T16:22:06.288Z,13.20
2024-03-11T16:26:09.068Z,13.15
2024-03-11T16:30:15.939Z,13.11
2024-03-11T16:34:20.233Z,13.06
2024-03-11T16:38:24.011Z,12.99
2024-03-11T16:42:28.853Z,12.81
2024-03-11T16:46:32.156Z,12.65
2024-03-11T16:50:37.859Z,12.53
2024-03-11T16:54:42.988Z,12.47
2024-03-11T16:58:46.745Z,12.46
2024-03-11T17:02:53.728Z,12.40
2024-03-11T17:06:59.903Z,12.32
2024-03-11T17:11:04.437Z,12.23
2024-03-11T17:15:11.437Z,12.11
2024-03-11T17:19:18.935Z,11.97
2024-03-11T17:23:27.215Z,11.90
2024-03-11T17:27:30.144Z,11.82
2024-03-11T17:31:33.035Z,11.70
2024-03-11T17:35:35.769Z,11.60
2024-03-11T17:39:40.067Z,11.53
2024-03-11T17:43:43.776Z,11.50
2024-03-11T17:47:47.936Z,11.46
2024-03-11T17:51:50.884Z,11.42
2024-03-11T17:55:56.145Z,11.32
2024-03-11T17:59:59.766Z,11.13
2024-03-11T18:04:02.613Z,11.00
2024-03-11T18:08:08.177Z,10.92
2024-03-11T18:12:12.471Z,10.89
2024-03-11T18:16:16.181Z,10.85
2024-03-11T18:20:24.167Z,10.78
2024-03-11T18:24:27.047Z,10.59
2024-03-11T18:28:33.061Z,10.49
2024-03-11T18:32:35.893Z,10.45
2024-03-11T18:36:39.107Z,10.43
2024-03-11T18:40:41.891Z,10.43
2024-03-11T18:44:45.937Z,10.43
2024-03-11T18:48:48.662Z,10.43
2024-03-11T18:52:58.791Z,10.36
2024-03-11T18:57:05.132Z,10.31
2024-03-11T19:01:09.305Z,10.30
2024-03-11T19:05:12.166Z,10.27
2024-03-11T19:09:14.970Z,10.23
2024-03-11T19:13:18.741Z,10.18
2024-03-11T19:17:22.825Z,10.14
2024-03-11T19:21:25.996Z,10.06
2024-03-11T19:25:30.157Z,10.01
2024-03-11T19:29:34.882Z,9.95
2024-03-11T19:33:40.156Z,9.88
2024-03-11T19:38:04.675Z,9.77
2024-03-11T19:42:30.553Z,9.69
2024-03-11T19:47:00.654Z,9.69
2024-03-11T19:52:04.317Z,9.62
2024-03-11T19:56:44.386Z,9.45
2024-03-11T20:01:12.973Z,9.38
2024-03-11T20:05:58.713Z,9.30
2024-03-11T20:10:36.390Z,9.21
2024-03-11T20:14:47.148Z,9.18
2024-03-11T20:19:06.885Z,9.11
2024-03-11T20:23:38.139Z,9.06
2024-03-11T20:27:53.908Z,9.01
2024-03-11T20:32:01.270Z,8.91
2024-03-11T20:36:06.045Z,8.83
2024-03-11T20:40:12.030Z,8.72
2024-03-11T20:44:16.727Z,8.64
2024-03-11T20:48:19.752Z,8.58
2024-03-11T20:52:22.597Z,8.54
2024-03-11T20:56:26.101Z,8.52
2024-03-11T21:00:30.315Z,8.50
2024-03-11T21:04:33.073Z,8.53
2024-03-11T21:08:37.261Z,8.54
2024-03-11T21:12:40.923Z,8.53
2024-03-11T21:16:45.185Z,8.53
2024-03-11T21:20:56.892Z,8.49
2024-03-11T21:25:10.193Z,8.47
2024-03-11T21:29:15.362Z,8.47
2024-03-11T21:33:20.833Z,8.49
2024-03-11T21:37:24.016Z,8.49
2024-03-11T21:41:27.578Z,8.49
2024-03-11T21:45:30.408Z,8.50
2024-03-11T21:49:34.544Z,8.51
2024-03-11T21:53:37.978Z,8.51
2024-03-11T21:57:42.851Z,8.46
2024-03-11T22:01:45.679Z,8.42
2024-03-11T22:05:49.837Z,8.41
2024-03-11T22:09:54.258Z,8.38
2024-03-11T22:13:57.622Z,8.36
2024-03-11T22:18:00.957Z,8.37
2024-03-11T22:22:05.847Z,8.34
2024-03-11T22:26:08.821Z,8.32
2024-03-11T22:30:13.357Z,8.31
2024-03-11T22:34:17.554Z,8.30
2024-03-11T22:38:21.612Z,8.29
2024-03-11T22:42:24.689Z,8.29
2024-03-11T22:46:27.638Z,8.28
2024-03-11T22:50:31.498Z,8.26
2024-03-11T22:54:35.777Z,8.25
2024-03-11T22:58:39.107Z,8.24
2024-03-11T23:02:43.671Z,8.21
2024-03-11T23:06:48.560Z,8.18
2024-03-11T23:10:53.690Z,8.14
2024-03-11T23:14:57.022Z,8.13
2024-03-11T23:18:59.961Z,8.12
2024-03-11T23:23:02.833Z,8.12
2024-03-11T23:27:07.443Z,8.10
2024-03-11T23:31:10.816Z,8.07
2024-03-11T23:35:16.056Z,8.06
2024-03-11T23:39:19.059Z,8.04
2024-03-11T23:43:23.165Z,8.01
2024-03-11T23:47:26.164Z,7.98
2024-03-11T23:51:29.114Z,7.94
2024-03-11T23:55:31.863Z,7.93
2024-03-11T23:59:36.186Z,7.91
